Sevilla Airport

LEZL | SVQ

Sevilla , Andalusia , Spain

Saturday, September 21st, 2019 | 13:33

Weather

LEZL 211100Z 23006KT 170V290 9999 FEW030 24/16 Q1015 NOSIG

Charts

No Charts Available

Gates

95 Available

Runways

1 Available

Events

No events for this airport


New event